createdAt,value
2023-04-28T00:01:46.174Z,38.65
2023-04-28T00:04:13.418Z,37.20
2023-04-28T00:06:41.210Z,40.30
2023-04-28T00:09:11.294Z,34.17
2023-04-28T00:11:41.329Z,38.47
2023-04-28T00:14:08.256Z,37.97
2023-04-28T00:16:35.525Z,31.92
2023-04-28T00:19:02.511Z,38.13
2023-04-28T00:21:29.577Z,34.40
2023-04-28T00:23:57.054Z,35.03
2023-04-28T00:26:23.992Z,39.97
2023-04-28T00:28:51.054Z,31.20
2023-04-28T00:31:18.298Z,40.42
2023-04-28T00:33:45.882Z,43.97
2023-04-28T00:36:12.902Z,42.53
2023-04-28T00:38:39.943Z,39.40
2023-04-28T00:41:07.582Z,33.00
2023-04-28T00:43:45.739Z,42.42
2023-04-28T00:46:23.364Z,36.80
2023-04-28T00:48:50.872Z,39.35
2023-04-28T00:51:18.041Z,34.03
2023-04-28T00:53:45.693Z,30.60
2023-04-28T00:56:13.255Z,26.27
2023-04-28T00:58:40.543Z,39.72
2023-04-28T01:01:10.145Z,42.80
2023-04-28T01:03:40.039Z,36.70
2023-04-28T01:06:08.699Z,27.67
2023-04-28T01:08:37.785Z,46.97
2023-04-28T01:11:05.096Z,31.88
2023-04-28T01:13:32.024Z,28.55
2023-04-28T01:15:59.333Z,36.92
2023-04-28T01:18:26.603Z,28.67
2023-04-28T01:20:53.611Z,32.33
2023-04-28T01:23:20.670Z,27.65
2023-04-28T01:25:47.641Z,21.88
2023-04-28T01:28:14.542Z,24.63
2023-04-28T01:30:41.473Z,32.28
2023-04-28T01:33:08.610Z,41.45
2023-04-28T01:35:35.768Z,29.20
2023-04-28T01:38:03.295Z,41.67
2023-04-28T01:40:30.510Z,25.10
2023-04-28T01:42:57.851Z,36.75
2023-04-28T01:45:24.937Z,28.45
2023-04-28T01:47:52.327Z,29.83
2023-04-28T01:50:19.552Z,25.17
2023-04-28T01:52:46.509Z,29.67
2023-04-28T01:55:13.994Z,23.50
2023-04-28T01:57:41.077Z,34.25
2023-04-28T02:00:08.516Z,35.20
2023-04-28T02:02:35.656Z,28.10
2023-04-28T02:05:02.827Z,27.75
2023-04-28T02:07:29.968Z,36.70
2023-04-28T02:09:57.053Z,23.90
2023-04-28T02:12:24.093Z,31.08
2023-04-28T02:14:51.389Z,30.50
2023-04-28T02:17:18.506Z,27.88
2023-04-28T02:19:45.428Z,29.38
2023-04-28T02:22:12.441Z,19.08
2023-04-28T02:24:39.671Z,29.63
2023-04-28T02:27:06.641Z,26.92
2023-04-28T02:29:33.678Z,22.05
2023-04-28T02:32:00.669Z,21.48
2023-04-28T02:34:27.749Z,25.58
2023-04-28T02:36:54.709Z,27.02
2023-04-28T02:39:22.874Z,28.92
2023-04-28T02:41:49.828Z,28.92
2023-04-28T02:44:16.888Z,22.20
2023-04-28T02:46:44.024Z,25.85
2023-04-28T02:49:11.321Z,27.65
2023-04-28T02:51:38.411Z,22.45
2023-04-28T02:54:05.527Z,20.00
2023-04-28T02:56:33.338Z,21.00
2023-04-28T02:59:00.541Z,16.63
2023-04-28T03:01:27.558Z,15.70
2023-04-28T03:03:54.728Z,23.75
2023-04-28T03:06:22.063Z,17.88
2023-04-28T03:08:49.016Z,19.92
2023-04-28T03:11:16.204Z,23.15
2023-04-28T03:13:43.141Z,23.05
2023-04-28T03:16:10.092Z,19.27
2023-04-28T03:18:37.048Z,21.38
2023-04-28T03:21:04.362Z,16.85
2023-04-28T03:23:31.492Z,43.53
2023-04-28T03:25:58.437Z,18.70
2023-04-28T03:28:25.390Z,23.23
2023-04-28T03:30:52.295Z,20.48
2023-04-28T03:33:19.432Z,22.00
2023-04-28T03:35:46.568Z,25.77
2023-04-28T03:38:13.526Z,26.80
2023-04-28T03:40:40.923Z,21.17
2023-04-28T03:43:07.974Z,26.98
2023-04-28T03:45:35.379Z,29.20
2023-04-28T03:48:02.696Z,27.70
2023-04-28T03:50:29.695Z,18.90
2023-04-28T03:52:56.639Z,33.00
2023-04-28T03:55:23.957Z,25.65
2023-04-28T03:57:50.924Z,50.80
2023-04-28T04:00:18.310Z,29.50
2023-04-28T04:02:45.644Z,32.38
2023-04-28T04:05:13.083Z,25.20
2023-04-28T04:07:40.427Z,28.73
2023-04-28T04:10:07.911Z,28.05
2023-04-28T04:12:34.827Z,22.08
2023-04-28T04:15:01.967Z,32.08
2023-04-28T04:17:29.388Z,28.23
2023-04-28T04:19:56.444Z,22.80
2023-04-28T04:22:23.667Z,29.80
2023-04-28T04:24:51.202Z,29.80
2023-04-28T04:27:18.204Z,27.25
2023-04-28T04:29:45.259Z,26.80
2023-04-28T04:32:13.351Z,30.33
2023-04-28T04:34:40.465Z,28.35
2023-04-28T04:37:07.392Z,31.90
2023-04-28T04:39:34.360Z,30.70
2023-04-28T04:42:10.161Z,27.88
2023-04-28T04:44:44.039Z,25.05
2023-04-28T04:47:11.219Z,28.45
2023-04-28T04:49:38.224Z,23.35
2023-04-28T04:52:06.880Z,26.10
2023-04-28T04:54:33.849Z,24.17
2023-04-28T04:57:01.933Z,21.70
2023-04-28T04:59:29.037Z,21.45
2023-04-28T05:01:57.027Z,23.65
2023-04-28T05:04:24.357Z,41.42
2023-04-28T05:06:51.669Z,23.17
2023-04-28T05:09:18.856Z,28.00
2023-04-28T05:11:46.460Z,26.80
2023-04-28T05:14:13.408Z,33.75
2023-04-28T05:16:41.918Z,29.98
2023-04-28T05:19:09.083Z,25.50
2023-04-28T05:21:36.025Z,20.27
2023-04-28T05:24:02.970Z,23.23
2023-04-28T05:26:30.194Z,28.63
2023-04-28T05:28:57.418Z,21.08
2023-04-28T05:31:24.599Z,23.55
2023-04-28T05:33:52.258Z,30.30
2023-04-28T05:36:19.466Z,31.52
2023-04-28T05:38:46.999Z,25.92
2023-04-28T05:41:13.915Z,28.65
2023-04-28T05:43:41.589Z,20.10
2023-04-28T05:46:18.146Z,20.60
2023-04-28T05:48:55.703Z,18.35
2023-04-28T05:51:22.771Z,24.85
2023-04-28T05:53:49.679Z,24.85
2023-04-28T05:56:17.208Z,23.70
2023-04-28T05:58:49.619Z,31.90
2023-04-28T06:01:17.470Z,28.15
2023-04-28T06:03:45.523Z,21.10
2023-04-28T06:06:13.106Z,30.35
2023-04-28T06:08:40.225Z,19.35
2023-04-28T06:11:07.276Z,18.95
2023-04-28T06:13:34.219Z,18.98
2023-04-28T06:16:01.403Z,22.45
2023-04-28T06:18:32.615Z,16.98
2023-04-28T06:20:59.822Z,22.25
2023-04-28T06:23:26.887Z,18.80
2023-04-28T06:25:54.167Z,19.33
2023-04-28T06:28:21.289Z,24.38
2023-04-28T06:30:48.226Z,24.05
2023-04-28T06:33:15.204Z,22.67
2023-04-28T06:35:42.457Z,19.92
2023-04-28T06:38:09.495Z,20.30
2023-04-28T06:40:36.678Z,19.73
2023-04-28T06:43:04.274Z,21.70
2023-04-28T06:45:31.304Z,22.45
2023-04-28T06:47:58.324Z,23.98
2023-04-28T06:50:25.421Z,15.23
2023-04-28T06:52:52.413Z,19.15
2023-04-28T06:55:19.567Z,16.48
2023-04-28T06:57:46.915Z,16.67
2023-04-28T07:00:14.574Z,22.67
2023-04-28T07:02:42.020Z,19.95
2023-04-28T07:05:09.568Z,16.83
2023-04-28T07:07:39.049Z,18.27
2023-04-28T07:10:07.141Z,16.30
2023-04-28T07:12:34.261Z,16.48
2023-04-28T07:15:01.175Z,20.85
2023-04-28T07:17:28.141Z,16.95
2023-04-28T07:19:55.124Z,16.20
2023-04-28T07:22:22.051Z,16.60
2023-04-28T07:24:49.139Z,16.83
2023-04-28T07:27:16.287Z,18.63
2023-04-28T07:29:43.260Z,16.65
2023-04-28T07:32:10.928Z,12.77
2023-04-28T07:34:38.084Z,15.70
2023-04-28T07:37:05.086Z,15.57
2023-04-28T07:39:34.145Z,20.38
2023-04-28T07:42:04.451Z,16.95
2023-04-28T07:44:31.877Z,13.85
2023-04-28T07:47:00.899Z,13.82
2023-04-28T07:49:30.021Z,14.75
2023-04-28T07:51:57.131Z,15.15
2023-04-28T07:54:25.398Z,11.77
2023-04-28T07:56:52.677Z,11.45
2023-04-28T07:59:19.827Z,11.95
2023-04-28T08:01:47.005Z,11.18
2023-04-28T08:04:14.452Z,12.45
2023-04-28T08:06:42.257Z,11.35
2023-04-28T08:09:09.533Z,9.68
2023-04-28T08:11:36.484Z,11.70
2023-04-28T08:14:03.665Z,7.82
2023-04-28T08:16:31.509Z,8.43
2023-04-28T08:18:59.868Z,8.18
2023-04-28T08:21:27.192Z,9.38
2023-04-28T08:23:54.264Z,8.15
2023-04-28T08:26:21.560Z,6.88
2023-04-28T08:28:48.525Z,8.95
2023-04-28T08:31:15.540Z,7.50
2023-04-28T08:33:44.848Z,7.13
2023-04-28T08:36:18.286Z,7.22
2023-04-28T08:38:46.162Z,5.35
2023-04-28T08:41:15.678Z,4.97
2023-04-28T08:43:43.928Z,6.38
2023-04-28T08:46:11.308Z,6.35
2023-04-28T08:48:45.161Z,6.75
2023-04-28T08:51:17.897Z,5.45
2023-04-28T08:56:25.293Z,3.55
2023-04-28T08:58:53.537Z,4.38
2023-04-28T09:01:20.500Z,4.38
2023-04-28T09:03:49.554Z,4.57
2023-04-28T09:06:16.807Z,3.70
2023-04-28T09:08:43.909Z,3.60
2023-04-28T09:11:13.780Z,4.05
2023-04-28T09:13:41.439Z,3.03
2023-04-28T09:16:08.752Z,3.55
2023-04-28T09:18:35.835Z,3.08
2023-04-28T09:21:10.046Z,2.38
2023-04-28T09:23:50.861Z,2.20
2023-04-28T09:26:18.252Z,1.80
2023-04-28T09:28:45.375Z,2.50
2023-04-28T09:31:27.346Z,1.50
2023-04-28T09:33:58.400Z,1.33
2023-04-28T09:36:31.615Z,0.70
2023-04-28T09:39:00.190Z,0.40
2023-04-28T09:41:43.948Z,0.73
2023-04-28T09:44:17.635Z,0.35
2023-04-28T09:46:46.133Z,0.52
2023-04-28T09:49:13.758Z,0.35
2023-04-28T09:51:41.768Z,0.40
2023-04-28T09:54:08.713Z,0.50
2023-04-28T09:56:40.834Z,0.30
2023-04-28T09:59:08.365Z,0.70
2023-04-28T10:01:41.073Z,1.13
2023-04-28T10:04:09.025Z,0.50
2023-04-28T10:06:39.328Z,0.80
2023-04-28T10:09:07.421Z,0.80
2023-04-28T10:11:34.937Z,0.98
2023-04-28T10:14:01.853Z,1.45
2023-04-28T10:16:31.540Z,1.20
2023-04-28T10:18:58.848Z,1.40
2023-04-28T10:21:27.994Z,1.30
2023-04-28T10:24:22.664Z,1.25
2023-04-28T10:27:09.615Z,1.15
2023-04-28T10:29:36.780Z,1.13
2023-04-28T10:32:26.615Z,0.80
2023-04-28T10:34:53.809Z,0.88
2023-04-28T10:37:21.532Z,0.80
2023-04-28T10:40:26.056Z,0.70
2023-04-28T10:42:56.726Z,1.00
2023-04-28T10:45:59.688Z,1.90
2023-04-28T10:48:26.807Z,1.83
2023-04-28T10:51:12.991Z,1.77
2023-04-28T10:53:49.584Z,2.08
2023-04-28T10:56:17.038Z,1.23
2023-04-28T10:58:49.125Z,1.45
2023-04-28T11:01:22.337Z,1.42
2023-04-28T11:04:00.305Z,1.52
2023-04-28T11:06:36.259Z,1.50
2023-04-28T11:09:15.610Z,1.65
2023-04-28T11:12:00.993Z,2.50
2023-04-28T11:14:36.223Z,2.88
2023-04-28T11:17:15.818Z,2.28
2023-04-28T11:19:45.344Z,2.40
2023-04-28T11:22:21.116Z,2.95
2023-04-28T11:24:58.676Z,2.33
2023-04-28T11:27:29.997Z,2.95
2023-04-28T11:29:57.342Z,2.53
2023-04-28T11:32:32.944Z,3.03
2023-04-28T11:35:00.293Z,2.03
2023-04-28T11:37:27.376Z,2.42
2023-04-28T11:39:54.752Z,2.20
2023-04-28T11:42:21.745Z,2.15
2023-04-28T11:44:53.239Z,2.42
2023-04-28T11:47:31.519Z,1.98
2023-04-28T11:49:59.059Z,1.70
2023-04-28T11:52:27.665Z,1.95
2023-04-28T11:55:01.097Z,2.17
2023-04-28T11:57:28.409Z,2.00
2023-04-28T12:00:19.600Z,2.60
2023-04-28T12:02:47.151Z,2.50
2023-04-28T12:05:14.730Z,2.03
2023-04-28T12:07:44.240Z,1.58
2023-04-28T12:10:18.914Z,2.88
2023-04-28T12:12:52.603Z,2.05
2023-04-28T12:16:06.060Z,2.97
2023-04-28T12:18:12.046Z,3.72
2023-04-28T12:20:39.560Z,6.22
2023-04-28T12:23:08.136Z,7.75
2023-04-28T12:25:44.636Z,7.20
2023-04-28T12:28:11.732Z,7.10
2023-04-28T12:30:44.822Z,6.88
2023-04-28T12:33:25.581Z,6.35
2023-04-28T12:35:55.204Z,5.32
2023-04-28T12:38:25.800Z,5.25
2023-04-28T12:40:53.385Z,4.00
2023-04-28T12:43:23.420Z,3.95
2023-04-28T12:45:53.330Z,3.78
2023-04-28T12:48:20.792Z,2.97
2023-04-28T12:50:47.685Z,3.08
2023-04-28T12:53:14.849Z,3.42
2023-04-28T12:55:42.204Z,2.85
2023-04-28T12:58:09.090Z,2.45
2023-04-28T13:00:36.298Z,3.03
2023-04-28T13:03:03.412Z,2.10
2023-04-28T13:05:32.303Z,1.85
2023-04-28T13:07:59.725Z,1.40
2023-04-28T13:10:27.021Z,1.50
2023-04-28T13:12:53.932Z,1.30
2023-04-28T13:15:21.111Z,1.80
2023-04-28T13:17:48.860Z,1.15
2023-04-28T13:20:16.018Z,1.30
2023-04-28T13:22:42.959Z,1.60
2023-04-28T13:25:10.215Z,1.38
2023-04-28T13:27:37.918Z,1.50
2023-04-28T13:30:06.053Z,1.42
2023-04-28T13:32:33.644Z,1.25
2023-04-28T13:35:00.796Z,1.30
2023-04-28T13:37:27.974Z,1.10
2023-04-28T13:39:54.896Z,1.08
2023-04-28T13:42:21.820Z,0.70
2023-04-28T13:44:49.437Z,1.00
2023-04-28T13:47:16.495Z,0.98
2023-04-28T13:49:43.636Z,0.60
2023-04-28T13:52:10.762Z,0.77
2023-04-28T13:54:38.156Z,0.63
2023-04-28T13:57:05.158Z,0.60
2023-04-28T13:59:32.463Z,0.65
2023-04-28T14:01:59.570Z,0.70
2023-04-28T14:04:26.624Z,0.60
2023-04-28T14:06:53.823Z,1.52
2023-04-28T14:09:20.749Z,0.93
2023-04-28T14:11:47.759Z,0.70
2023-04-28T14:14:14.802Z,0.70
2023-04-28T14:16:41.917Z,0.73
2023-04-28T14:19:09.074Z,0.52
2023-04-28T14:21:37.179Z,2.17
2023-04-28T14:24:04.383Z,0.77
2023-04-28T14:26:31.333Z,0.75
2023-04-28T14:28:58.920Z,1.00
2023-04-28T14:31:25.983Z,1.33
2023-04-28T14:33:52.990Z,0.93
2023-04-28T14:36:20.192Z,1.75
2023-04-28T14:38:47.625Z,1.10
2023-04-28T14:41:14.613Z,1.60
2023-04-28T14:43:41.536Z,1.63
2023-04-28T14:46:08.821Z,1.23
2023-04-28T14:48:37.024Z,1.67
2023-04-28T14:51:04.244Z,1.45
2023-04-28T14:53:32.013Z,1.40
2023-04-28T14:56:07.528Z,2.65
2023-04-28T14:58:44.590Z,1.80
2023-04-28T15:01:11.859Z,2.95
2023-04-28T15:03:39.080Z,1.60
2023-04-28T15:06:06.430Z,1.58
2023-04-28T15:08:33.600Z,3.83
2023-04-28T15:11:00.581Z,2.95
2023-04-28T15:13:28.793Z,3.70
2023-04-28T15:15:56.400Z,2.20
2023-04-28T15:18:24.117Z,4.20
2023-04-28T15:20:51.744Z,4.82
2023-04-28T15:23:19.919Z,3.03
2023-04-28T15:25:47.369Z,4.72
2023-04-28T15:28:14.276Z,2.75
2023-04-28T15:30:41.444Z,3.60
2023-04-28T15:33:08.417Z,3.80
2023-04-28T15:35:35.836Z,2.25
2023-04-28T15:38:02.834Z,2.85
2023-04-28T15:40:29.727Z,2.83
2023-04-28T15:42:56.801Z,2.90
2023-04-28T15:45:23.804Z,2.28
2023-04-28T15:47:51.292Z,2.20
2023-04-28T15:50:20.449Z,3.45
2023-04-28T15:52:50.273Z,2.20
2023-04-28T15:55:22.012Z,3.85
2023-04-28T15:57:49.484Z,2.00
2023-04-28T16:00:16.751Z,3.28
2023-04-28T16:02:44.693Z,1.52
2023-04-28T16:05:12.333Z,2.78
2023-04-28T16:07:41.233Z,3.65
2023-04-28T16:10:10.086Z,2.75
2023-04-28T16:12:37.577Z,2.50
2023-04-28T16:15:05.871Z,2.67
2023-04-28T16:17:35.891Z,1.98
2023-04-28T16:20:05.337Z,2.83
2023-04-28T16:22:32.528Z,2.00
2023-04-28T16:25:04.186Z,4.72
2023-04-28T16:27:31.951Z,2.72
2023-04-28T16:29:59.670Z,4.93
2023-04-28T16:32:27.034Z,1.90
2023-04-28T16:34:56.211Z,1.35
2023-04-28T16:37:23.115Z,2.35
2023-04-28T16:39:50.240Z,2.25
2023-04-28T16:42:17.396Z,1.50
2023-04-28T16:44:44.389Z,2.50
2023-04-28T16:47:14.381Z,3.80
2023-04-28T16:49:41.353Z,2.45
2023-04-28T16:52:09.024Z,3.25
2023-04-28T16:54:36.051Z,4.18
2023-04-28T16:57:04.191Z,4.53
2023-04-28T16:59:31.228Z,2.10
2023-04-28T17:01:59.146Z,2.85
2023-04-28T17:04:27.191Z,3.80
2023-04-28T17:06:54.471Z,2.40
2023-04-28T17:09:22.528Z,5.13
2023-04-28T17:11:50.262Z,4.00
2023-04-28T17:14:17.325Z,3.78
2023-04-28T17:16:44.827Z,2.55
2023-04-28T17:19:12.729Z,1.83
2023-04-28T17:21:39.903Z,2.85
2023-04-28T17:24:07.201Z,2.15
2023-04-28T17:26:34.229Z,2.95
2023-04-28T17:29:02.322Z,1.80
2023-04-28T17:31:30.021Z,4.05
2023-04-28T17:33:59.640Z,2.00
2023-04-28T17:36:27.418Z,1.83
2023-04-28T17:38:55.591Z,3.08
2023-04-28T17:41:23.226Z,1.83
2023-04-28T17:43:51.949Z,3.83
2023-04-28T17:46:19.080Z,2.72
2023-04-28T17:48:46.528Z,1.30
2023-04-28T17:51:13.517Z,2.75
2023-04-28T17:53:40.578Z,2.45
2023-04-28T17:56:08.354Z,2.25
2023-04-28T17:58:36.694Z,2.55
2023-04-28T18:01:05.090Z,3.75
2023-04-28T18:03:33.803Z,2.67
2023-04-28T18:06:01.440Z,1.88
2023-04-28T18:08:28.478Z,2.17
2023-04-28T18:10:56.486Z,2.65
2023-04-28T18:13:23.488Z,2.00
2023-04-28T18:15:50.488Z,1.48
2023-04-28T18:18:17.653Z,2.42
2023-04-28T18:20:44.770Z,1.33
2023-04-28T18:23:11.703Z,2.47
2023-04-28T18:25:38.867Z,2.88
2023-04-28T18:28:06.242Z,2.30
2023-04-28T18:30:38.810Z,1.80
2023-04-28T18:33:07.553Z,1.30
2023-04-28T18:35:35.029Z,4.00
2023-04-28T18:38:02.060Z,2.60
2023-04-28T18:40:37.547Z,1.95
2023-04-28T18:43:08.082Z,2.55
2023-04-28T18:45:37.421Z,2.22
2023-04-28T18:48:04.894Z,3.80
2023-04-28T18:50:33.069Z,1.88
2023-04-28T18:53:04.584Z,3.05
2023-04-28T18:55:34.412Z,2.25
2023-04-28T18:58:04.679Z,3.55
2023-04-28T19:00:34.638Z,4.65
2023-04-28T19:03:03.881Z,5.05
2023-04-28T19:05:30.957Z,4.53
2023-04-28T19:07:58.081Z,1.80
2023-04-28T19:10:25.058Z,2.97
2023-04-28T19:12:52.038Z,2.53
2023-04-28T19:15:19.472Z,4.45
2023-04-28T19:17:46.818Z,5.55
2023-04-28T19:20:14.005Z,2.65
2023-04-28T19:22:41.569Z,3.20
2023-04-28T19:25:09.427Z,1.83
2023-04-28T19:27:40.854Z,3.40
2023-04-28T19:30:11.128Z,4.07
2023-04-28T19:32:38.935Z,2.00
2023-04-28T19:35:07.275Z,3.33
2023-04-28T19:37:35.196Z,4.85
2023-04-28T19:40:07.194Z,4.45
2023-04-28T19:42:37.524Z,4.57
2023-04-28T19:45:05.066Z,1.98
2023-04-28T19:47:34.800Z,3.40
2023-04-28T19:50:02.185Z,5.65
2023-04-28T19:52:29.274Z,3.63
2023-04-28T19:54:57.280Z,3.38
2023-04-28T19:57:24.404Z,3.10
2023-04-28T19:59:51.541Z,1.63
2023-04-28T20:02:21.228Z,2.00
2023-04-28T20:04:49.362Z,5.07
2023-04-28T20:07:16.408Z,1.52
2023-04-28T20:09:44.478Z,2.55
2023-04-28T20:12:11.642Z,1.88
2023-04-28T20:14:38.634Z,5.63
2023-04-28T20:17:06.249Z,4.80
2023-04-28T20:19:33.357Z,5.45
2023-04-28T20:22:04.870Z,2.30
2023-04-28T20:24:34.819Z,3.15
2023-04-28T20:27:02.439Z,2.85
2023-04-28T20:29:35.061Z,2.80
2023-04-28T20:32:03.662Z,3.25
2023-04-28T20:34:31.781Z,3.38
2023-04-28T20:36:59.677Z,2.53
2023-04-28T20:39:26.963Z,2.25
2023-04-28T20:41:53.882Z,3.22
2023-04-28T20:44:20.830Z,2.10
2023-04-28T20:46:47.806Z,3.55
2023-04-28T20:49:15.256Z,3.33
2023-04-28T20:51:45.322Z,2.70
2023-04-28T20:54:12.948Z,3.42
2023-04-28T20:56:42.083Z,1.85
2023-04-28T20:59:09.120Z,3.75
2023-04-28T21:01:36.063Z,2.25
2023-04-28T21:04:03.413Z,3.08
2023-04-28T21:06:30.524Z,4.75
2023-04-28T21:08:57.495Z,4.32
2023-04-28T21:11:25.739Z,2.05
2023-04-28T21:13:52.648Z,2.35
2023-04-28T21:16:21.674Z,2.72
2023-04-28T21:18:49.925Z,5.03
2023-04-28T21:21:16.980Z,5.05
2023-04-28T21:23:44.375Z,4.05
2023-04-28T21:26:11.656Z,7.35
2023-04-28T21:28:40.019Z,6.32
2023-04-28T21:31:07.206Z,4.75
2023-04-28T21:33:34.523Z,7.82
2023-04-28T21:36:08.094Z,6.22
2023-04-28T21:38:36.908Z,6.13
2023-04-28T21:41:04.156Z,2.47
2023-04-28T21:43:31.288Z,5.97
2023-04-28T21:45:58.577Z,6.72
2023-04-28T21:48:25.538Z,3.40
2023-04-28T21:50:52.446Z,3.90
2023-04-28T21:53:20.655Z,3.38
2023-04-28T21:55:47.657Z,4.10
2023-04-28T21:58:15.295Z,4.55
2023-04-28T22:00:48.614Z,3.95
2023-04-28T22:03:16.272Z,6.68
2023-04-28T22:05:44.743Z,3.40
2023-04-28T22:08:12.299Z,3.70
2023-04-28T22:10:39.515Z,3.00
2023-04-28T22:13:06.988Z,3.55
2023-04-28T22:15:34.121Z,5.90
2023-04-28T22:18:01.339Z,2.83
2023-04-28T22:20:28.578Z,2.85
2023-04-28T22:22:55.704Z,4.07
2023-04-28T22:25:22.822Z,6.43
2023-04-28T22:27:49.972Z,6.25
2023-04-28T22:30:17.120Z,7.30
2023-04-28T22:32:44.930Z,5.57
2023-04-28T22:35:16.937Z,6.35
2023-04-28T22:37:44.224Z,5.47
2023-04-28T22:40:11.510Z,7.40
2023-04-28T22:42:40.206Z,2.72
2023-04-28T22:45:07.964Z,6.40
2023-04-28T22:47:35.678Z,6.88
2023-04-28T22:50:06.135Z,7.63
2023-04-28T22:52:34.320Z,6.75
2023-04-28T22:55:01.651Z,7.32
2023-04-28T22:57:29.145Z,4.45
2023-04-28T22:59:56.279Z,3.30
2023-04-28T23:02:23.556Z,4.32
2023-04-28T23:04:51.184Z,3.13
2023-04-28T23:07:18.508Z,5.20
2023-04-28T23:09:45.568Z,4.32
2023-04-28T23:12:12.481Z,4.20
2023-04-28T23:14:39.436Z,5.55
2023-04-28T23:17:06.444Z,2.38
2023-04-28T23:19:35.560Z,5.32
2023-04-28T23:22:02.555Z,6.88
2023-04-28T23:24:29.558Z,2.30
2023-04-28T23:26:56.744Z,5.75
2023-04-28T23:29:23.973Z,5.78
2023-04-28T23:31:54.664Z,4.45
2023-04-28T23:34:23.377Z,5.55
2023-04-28T23:36:50.921Z,4.03
2023-04-28T23:39:17.915Z,4.40
2023-04-28T23:41:44.855Z,4.57
2023-04-28T23:44:11.936Z,6.13
2023-04-28T23:46:39.005Z,3.95
2023-04-28T23:49:05.967Z,7.82
2023-04-28T23:51:33.021Z,4.88
2023-04-28T23:54:00.141Z,4.40
2023-04-28T23:56:27.377Z,3.35
2023-04-28T23:58:54.573Z,4.35
